sensor_id;sensor_type;location;lat;lon;timestamp;P1;durP1;ratioP1;P2;durP2;ratioP2
42724;SDS011;28369;44.046;23.014;2023-02-15T00:01:23;20.73;;;12.37;;
42724;SDS011;28369;44.046;23.014;2023-02-15T00:03:48;21.47;;;13.23;;
42724;SDS011;28369;44.046;23.014;2023-02-15T00:06:14;23.30;;;14.00;;
42724;SDS011;28369;44.046;23.014;2023-02-15T00:08:40;20.03;;;13.47;;
42724;SDS011;28369;44.046;23.014;2023-02-15T00:11:06;20.70;;;13.30;;
42724;SDS011;28369;44.046;23.014;2023-02-15T00:13:33;21.20;;;13.10;;
42724;SDS011;28369;44.046;23.014;2023-02-15T00:16:02;24.40;;;14.60;;
42724;SDS011;28369;44.046;23.014;2023-02-15T00:18:29;23.40;;;13.60;;
42724;SDS011;28369;44.046;23.014;2023-02-15T00:20:55;44.77;;;21.83;;
42724;SDS011;28369;44.046;23.014;2023-02-15T00:23:20;78.87;;;31.63;;
42724;SDS011;28369;44.046;23.014;2023-02-15T00:25:46;94.67;;;34.30;;
42724;SDS011;28369;44.046;23.014;2023-02-15T00:38:29;31.93;;;18.30;;
42724;SDS011;28369;44.046;23.014;2023-02-15T00:40:56;25.47;;;15.87;;
42724;SDS011;28369;44.046;23.014;2023-02-15T00:43:23;25.27;;;14.53;;
42724;SDS011;28369;44.046;23.014;2023-02-15T00:45:49;35.93;;;19.90;;
42724;SDS011;28369;44.046;23.014;2023-02-15T00:48:15;25.37;;;15.87;;
42724;SDS011;28369;44.046;23.014;2023-02-15T00:53:16;27.07;;;17.43;;
42724;SDS011;28369;44.046;23.014;2023-02-15T00:55:41;42.83;;;22.80;;
42724;SDS011;28369;44.046;23.014;2023-02-15T00:58:08;33.93;;;21.60;;
42724;SDS011;28369;44.046;23.014;2023-02-15T01:00:34;29.07;;;18.77;;
42724;SDS011;28369;44.046;23.014;2023-02-15T01:03:01;30.27;;;18.47;;
42724;SDS011;28369;44.046;23.014;2023-02-15T01:05:26;28.40;;;18.97;;
42724;SDS011;28369;44.046;23.014;2023-02-15T01:07:52;29.17;;;17.87;;
42724;SDS011;28369;44.046;23.014;2023-02-15T01:10:18;31.87;;;18.20;;
42724;SDS011;28369;44.046;23.014;2023-02-15T01:12:43;30.50;;;19.00;;
42724;SDS011;28369;44.046;23.014;2023-02-15T01:15:09;29.90;;;19.20;;
42724;SDS011;28369;44.046;23.014;2023-02-15T01:17:35;33.33;;;18.93;;
42724;SDS011;28369;44.046;23.014;2023-02-15T01:20:00;30.33;;;17.63;;
42724;SDS011;28369;44.046;23.014;2023-02-15T01:22:26;32.87;;;18.60;;
42724;SDS011;28369;44.046;23.014;2023-02-15T01:24:52;30.53;;;18.30;;
42724;SDS011;28369;44.046;23.014;2023-02-15T01:27:18;29.43;;;18.40;;
42724;SDS011;28369;44.046;23.014;2023-02-15T01:29:43;33.03;;;18.73;;
42724;SDS011;28369;44.046;23.014;2023-02-15T01:32:09;31.13;;;18.20;;
42724;SDS011;28369;44.046;23.014;2023-02-15T01:34:35;28.77;;;17.80;;
42724;SDS011;28369;44.046;23.014;2023-02-15T01:37:01;29.37;;;18.57;;
42724;SDS011;28369;44.046;23.014;2023-02-15T01:39:26;30.93;;;18.83;;
42724;SDS011;28369;44.046;23.014;2023-02-15T01:41:52;27.67;;;16.87;;
42724;SDS011;28369;44.046;23.014;2023-02-15T01:50:22;27.57;;;16.53;;
42724;SDS011;28369;44.046;23.014;2023-02-15T01:52:55;25.67;;;16.57;;
42724;SDS011;28369;44.046;23.014;2023-02-15T01:55:34;29.77;;;16.47;;
42724;SDS011;28369;44.046;23.014;2023-02-15T01:58:04;26.58;;;15.95;;
42724;SDS011;28369;44.046;23.014;2023-02-15T02:03:56;24.13;;;15.82;;
42724;SDS011;28369;44.046;23.014;2023-02-15T02:06:24;29.10;;;17.60;;
42724;SDS011;28369;44.046;23.014;2023-02-15T02:08:51;30.03;;;19.80;;
42724;SDS011;28369;44.046;23.014;2023-02-15T02:11:18;31.73;;;19.90;;
42724;SDS011;28369;44.046;23.014;2023-02-15T02:13:44;30.77;;;18.83;;
42724;SDS011;28369;44.046;23.014;2023-02-15T02:19:05;26.37;;;16.70;;
42724;SDS011;28369;44.046;23.014;2023-02-15T02:34:13;33.63;;;20.30;;
42724;SDS011;28369;44.046;23.014;2023-02-15T02:36:55;35.70;;;21.10;;
42724;SDS011;28369;44.046;23.014;2023-02-15T02:42:18;44.87;;;20.00;;
42724;SDS011;28369;44.046;23.014;2023-02-15T02:52:58;39.10;;;23.23;;
42724;SDS011;28369;44.046;23.014;2023-02-15T02:57:57;36.72;;;24.00;;
42724;SDS011;28369;44.046;23.014;2023-02-15T03:05:36;33.80;;;21.27;;
42724;SDS011;28369;44.046;23.014;2023-02-15T03:08:05;36.23;;;21.93;;
42724;SDS011;28369;44.046;23.014;2023-02-15T03:10:35;32.47;;;19.97;;
42724;SDS011;28369;44.046;23.014;2023-02-15T03:13:04;35.60;;;21.37;;
42724;SDS011;28369;44.046;23.014;2023-02-15T03:15:33;35.60;;;21.37;;
42724;SDS011;28369;44.046;23.014;2023-02-15T03:23:30;32.37;;;18.47;;
42724;SDS011;28369;44.046;23.014;2023-02-15T03:33:50;32.53;;;19.70;;
42724;SDS011;28369;44.046;23.014;2023-02-15T03:36:32;34.97;;;20.53;;
42724;SDS011;28369;44.046;23.014;2023-02-15T03:39:13;31.00;;;19.33;;
42724;SDS011;28369;44.046;23.014;2023-02-15T03:41:50;33.37;;;19.53;;
42724;SDS011;28369;44.046;23.014;2023-02-15T03:44:28;33.03;;;20.33;;
42724;SDS011;28369;44.046;23.014;2023-02-15T03:46:58;33.43;;;20.77;;
42724;SDS011;28369;44.046;23.014;2023-02-15T03:49:38;36.03;;;20.27;;
42724;SDS011;28369;44.046;23.014;2023-02-15T03:52:10;33.87;;;21.03;;
42724;SDS011;28369;44.046;23.014;2023-02-15T03:57:15;39.13;;;22.67;;
42724;SDS011;28369;44.046;23.014;2023-02-15T04:49:30;62.97;;;37.87;;
42724;SDS011;28369;44.046;23.014;2023-02-15T05:07:20;48.60;;;29.10;;
42724;SDS011;28369;44.046;23.014;2023-02-15T05:09:46;52.03;;;30.93;;
42724;SDS011;28369;44.046;23.014;2023-02-15T05:12:11;51.43;;;32.60;;
42724;SDS011;28369;44.046;23.014;2023-02-15T05:58:29;55.00;;;30.53;;
42724;SDS011;28369;44.046;23.014;2023-02-15T06:00:57;58.77;;;31.37;;
42724;SDS011;28369;44.046;23.014;2023-02-15T06:03:23;54.27;;;29.17;;
42724;SDS011;28369;44.046;23.014;2023-02-15T06:11:01;67.27;;;29.43;;
42724;SDS011;28369;44.046;23.014;2023-02-15T06:30:14;131.23;;;63.83;;
42724;SDS011;28369;44.046;23.014;2023-02-15T06:40:36;88.03;;;48.47;;
42724;SDS011;28369;44.046;23.014;2023-02-15T06:48:18;57.33;;;30.60;;
42724;SDS011;28369;44.046;23.014;2023-02-15T06:50:44;47.73;;;30.53;;
42724;SDS011;28369;44.046;23.014;2023-02-15T06:53:09;44.83;;;28.05;;
42724;SDS011;28369;44.046;23.014;2023-02-15T06:55:35;44.90;;;27.73;;
42724;SDS011;28369;44.046;23.014;2023-02-15T06:58:00;39.97;;;25.90;;
42724;SDS011;28369;44.046;23.014;2023-02-15T07:00:26;47.75;;;28.23;;
42724;SDS011;28369;44.046;23.014;2023-02-15T07:02:55;47.42;;;29.15;;
42724;SDS011;28369;44.046;23.014;2023-02-15T07:21:04;48.30;;;27.52;;
42724;SDS011;28369;44.046;23.014;2023-02-15T07:26:07;48.83;;;28.52;;
42724;SDS011;28369;44.046;23.014;2023-02-15T07:28:34;39.60;;;26.13;;
42724;SDS011;28369;44.046;23.014;2023-02-15T07:31:03;46.05;;;29.05;;
42724;SDS011;28369;44.046;23.014;2023-02-15T07:33:32;48.55;;;30.67;;
42724;SDS011;28369;44.046;23.014;2023-02-15T13:35:16;17.77;;;13.65;;
42724;SDS011;28369;44.046;23.014;2023-02-15T17:47:24;46.92;;;30.40;;
42724;SDS011;28369;44.046;23.014;2023-02-15T18:18:34;41.33;;;27.45;;
42724;SDS011;28369;44.046;23.014;2023-02-15T18:20:59;39.15;;;27.40;;
42724;SDS011;28369;44.046;23.014;2023-02-15T18:23:25;38.17;;;26.02;;
42724;SDS011;28369;44.046;23.014;2023-02-15T18:25:51;41.08;;;28.30;;
42724;SDS011;28369;44.046;23.014;2023-02-15T18:33:38;39.33;;;27.73;;
42724;SDS011;28369;44.046;23.014;2023-02-15T18:45:37;46.72;;;30.35;;
42724;SDS011;28369;44.046;23.014;2023-02-15T18:48:05;46.85;;;30.85;;
42724;SDS011;28369;44.046;23.014;2023-02-15T18:50:35;42.78;;;29.13;;
42724;SDS011;28369;44.046;23.014;2023-02-15T18:53:02;42.58;;;28.45;;
42724;SDS011;28369;44.046;23.014;2023-02-15T19:40:06;41.42;;;28.17;;
42724;SDS011;28369;44.046;23.014;2023-02-15T19:42:44;41.22;;;27.27;;
42724;SDS011;28369;44.046;23.014;2023-02-15T19:45:14;45.58;;;29.65;;
42724;SDS011;28369;44.046;23.014;2023-02-15T19:47:41;46.50;;;29.65;;
42724;SDS011;28369;44.046;23.014;2023-02-15T19:50:11;40.28;;;25.35;;
42724;SDS011;28369;44.046;23.014;2023-02-15T19:52:38;40.65;;;25.83;;
42724;SDS011;28369;44.046;23.014;2023-02-15T20:15:46;43.60;;;29.13;;
42724;SDS011;28369;44.046;23.014;2023-02-15T20:18:13;47.72;;;30.45;;
42724;SDS011;28369;44.046;23.014;2023-02-15T20:20:46;45.97;;;30.45;;
42724;SDS011;28369;44.046;23.014;2023-02-15T20:23:18;47.03;;;30.65;;
42724;SDS011;28369;44.046;23.014;2023-02-15T20:25:47;55.00;;;32.67;;
42724;SDS011;28369;44.046;23.014;2023-02-15T20:28:14;54.05;;;31.55;;
42724;SDS011;28369;44.046;23.014;2023-02-15T20:33:18;58.75;;;33.22;;
42724;SDS011;28369;44.046;23.014;2023-02-15T20:51:15;54.50;;;29.88;;
42724;SDS011;28369;44.046;23.014;2023-02-15T20:53:42;51.75;;;30.58;;
42724;SDS011;28369;44.046;23.014;2023-02-15T21:01:17;46.15;;;29.35;;
42724;SDS011;28369;44.046;23.014;2023-02-15T21:03:46;38.67;;;26.00;;
42724;SDS011;28369;44.046;23.014;2023-02-15T21:06:16;41.60;;;27.23;;
42724;SDS011;28369;44.046;23.014;2023-02-15T21:08:42;37.08;;;25.00;;
42724;SDS011;28369;44.046;23.014;2023-02-15T21:11:15;38.28;;;25.88;;
42724;SDS011;28369;44.046;23.014;2023-02-15T21:26:34;47.50;;;27.95;;
42724;SDS011;28369;44.046;23.014;2023-02-15T21:49:41;44.38;;;24.60;;
42724;SDS011;28369;44.046;23.014;2023-02-15T21:52:08;40.50;;;26.58;;
42724;SDS011;28369;44.046;23.014;2023-02-15T22:04:58;45.75;;;27.27;;
42724;SDS011;28369;44.046;23.014;2023-02-15T22:12:32;43.28;;;26.48;;
42724;SDS011;28369;44.046;23.014;2023-02-15T22:26:19;39.90;;;25.05;;
42724;SDS011;28369;44.046;23.014;2023-02-15T22:29:04;41.17;;;27.15;;
42724;SDS011;28369;44.046;23.014;2023-02-15T22:46:56;43.08;;;30.05;;
42724;SDS011;28369;44.046;23.014;2023-02-15T23:00:30;79.30;;;39.90;;
42724;SDS011;28369;44.046;23.014;2023-02-15T23:03:00;80.23;;;45.90;;
